Sylhet, Bangladesh
Current Conditions -  °F | °C
As of 10:50 AM on Thursday 23 Oct 2014 (Local Time) from VGHS Reporting Station
Haze Haze  
Wind Chill: 86°   Ceiling: Unl
Heat Index: 89°   Visibility: 3mi
Dew Point: 68°   Wind: 6mph
Humidity: 55%   Direction: 310°NW
Pressure: 29.91"   Gusts: NA
Location:  24.9°N, 91.88°E
Report Text: VGHS 230450Z 31005KT 5000 HZ FEW025 SCT100 30/20 Q1013 NOSIG
Loading
Personal Weather Stations






























Interactive Weather Map
Tropical Storm Tracking
New forecast layout! Learn more

10-Day Weather Forecast

Advertisements
Track Severe Weather on mobile